Eelde Airport


Codes: EHGG/GRQ
Name: Eelde Airport
City: Groningen
Country: Netherlands
Elevation: 17 ft.
Wikipedia:

Photos at Eelde Airport


   Photos courtesy of SpottingLog. You can add your own sightings and photos by signing up for a free trial today.



ZK550, 29-Jan-2023
© Ruben


Weather at Eelde Airport


Time (UTC)DescriptionTempratureWindCloud coverageVisibilityPressureHumidity
15-Apr-2024 18:00Light Rain6°C18 mph, W80%10000m996hPa85%
15-Apr-2024 21:00Light Rain5°C16 mph, W58%10000m996hPa89%
16-Apr-2024 00:00Light Rain5°C16 mph, W76%10000m996hPa88%
16-Apr-2024 03:00Light Rain5°C11 mph, SW100%10000m995hPa90%
16-Apr-2024 06:00Light Rain6°C7 mph, SW94%10000m996hPa90%
16-Apr-2024 09:00Light Rain8°C7 mph, NW100%10000m998hPa75%
16-Apr-2024 12:00Light Rain9°C20 mph, N99%10000m1001hPa74%
16-Apr-2024 15:00Broken Clouds10°C16 mph, N81%10000m1005hPa62%
16-Apr-2024 18:00Light Rain7°C13 mph, N89%10000m1007hPa79%
16-Apr-2024 21:00Broken Clouds4°C7 mph, NW61%10000m1009hPa82%
17-Apr-2024 00:00Scattered Clouds3°C7 mph, NW49%10000m1010hPa81%
17-Apr-2024 03:00Overcast Clouds3°C4 mph, NW87%10000m1010hPa84%
17-Apr-2024 06:00Overcast Clouds5°C4 mph, NW93%10000m1011hPa84%
17-Apr-2024 09:00Light Rain7°C9 mph, NW100%10000m1012hPa77%
17-Apr-2024 12:00Light Rain8°C7 mph, NW100%10000m1012hPa76%
17-Apr-2024 15:00Light Rain9°C9 mph, N100%10000m1013hPa70%
17-Apr-2024 18:00Light Rain6°C7 mph, N100%10000m1014hPa85%
17-Apr-2024 21:00Few Clouds4°C4 mph, N11%10000m1015hPa89%
18-Apr-2024 00:00Clear Sky3°C4 mph, N9%10000m1016hPa91%
18-Apr-2024 03:00Clear Sky3°C4 mph, NW9%10000m1017hPa91%
18-Apr-2024 06:00Light Rain5°C4 mph, NW12%10000m1018hPa89%
18-Apr-2024 09:00Light Rain9°C11 mph, NW88%10000m1020hPa66%
18-Apr-2024 12:00Broken Clouds10°C11 mph, NW82%10000m1020hPa54%
18-Apr-2024 15:00Broken Clouds9°C13 mph, NW62%10000m1020hPa62%
18-Apr-2024 18:00Broken Clouds6°C9 mph, NW67%10000m1021hPa74%
18-Apr-2024 21:00Overcast Clouds3°C7 mph, SW99%10000m1020hPa85%
19-Apr-2024 00:00Overcast Clouds4°C7 mph, SW100%10000m1018hPa83%
19-Apr-2024 03:00Light Rain5°C13 mph, SW100%10000m1014hPa86%
19-Apr-2024 06:00Light Rain7°C16 mph, W100%10000m1011hPa94%
19-Apr-2024 09:00Light Rain9°C16 mph, NW100%10000m1010hPa82%
19-Apr-2024 12:00Light Rain10°C22 mph, NW84%10000m1011hPa70%
19-Apr-2024 15:00Light Rain9°C20 mph, NW62%10000m1013hPa68%
19-Apr-2024 18:00Broken Clouds7°C22 mph, NW82%10000m1014hPa57%
19-Apr-2024 21:00Overcast Clouds6°C20 mph, NW100%10000m1016hPa73%
20-Apr-2024 00:00Overcast Clouds6°C18 mph, NW99%10000m1017hPa55%
20-Apr-2024 03:00Overcast Clouds5°C13 mph, NW99%10000m1019hPa63%
20-Apr-2024 06:00Overcast Clouds6°C11 mph, NW100%10000m1020hPa69%
20-Apr-2024 09:00Overcast Clouds8°C13 mph, NW100%10000m1021hPa64%
20-Apr-2024 12:00Overcast Clouds9°C13 mph, NW100%10000m1022hPa75%
20-Apr-2024 15:00Light Rain8°C13 mph, W100%10000m1021hPa88%